createdAt,value
2018-09-06T00:01:50.293Z,55.71
2018-09-06T00:04:18.949Z,56.95
2018-09-06T00:06:47.513Z,56.93
2018-09-06T00:09:16.092Z,56.81
2018-09-06T00:11:44.973Z,57.21
2018-09-06T00:14:13.557Z,56.62
2018-09-06T00:16:42.184Z,57.28
2018-09-06T00:19:10.877Z,57.48
2018-09-06T00:21:39.452Z,57.10
2018-09-06T00:24:08.025Z,57.80
2018-09-06T00:26:36.651Z,57.78
2018-09-06T00:29:05.225Z,56.86
2018-09-06T00:31:33.833Z,56.81
2018-09-06T00:34:02.425Z,57.06
2018-09-06T00:36:30.994Z,57.42
2018-09-06T00:38:59.552Z,56.80
2018-09-06T00:41:28.177Z,57.41
2018-09-06T00:43:56.733Z,57.17
2018-09-06T00:46:25.301Z,58.23
2018-09-06T00:48:53.902Z,58.27
2018-09-06T00:51:22.483Z,58.04
2018-09-06T00:53:59.981Z,57.75
2018-09-06T00:56:28.611Z,57.50
2018-09-06T00:58:57.255Z,58.07
2018-09-06T01:01:27.602Z,58.47
2018-09-06T01:03:56.203Z,58.45
2018-09-06T01:06:24.774Z,58.61
2018-09-06T01:08:53.362Z,58.53
2018-09-06T01:11:21.915Z,58.58
2018-09-06T01:13:50.472Z,58.67
2018-09-06T01:16:19.135Z,58.33
2018-09-06T01:18:47.692Z,58.89
2018-09-06T01:21:16.547Z,59.08
2018-09-06T01:23:45.571Z,59.48
2018-09-06T01:26:14.151Z,59.17
2018-09-06T01:28:42.695Z,58.80
2018-09-06T01:31:12.139Z,59.21
2018-09-06T01:33:40.696Z,59.15
2018-09-06T01:36:14.436Z,58.60
2018-09-06T01:38:42.975Z,58.74
2018-09-06T01:41:11.551Z,59.32
2018-09-06T01:43:40.163Z,59.65
2018-09-06T01:46:08.733Z,59.42
2018-09-06T01:48:37.304Z,60.16
2018-09-06T01:51:06.099Z,59.91
2018-09-06T01:53:34.655Z,59.92
2018-09-06T01:56:03.219Z,60.11
2018-09-06T01:58:31.822Z,60.63
2018-09-06T02:01:00.385Z,60.81
2018-09-06T02:03:28.951Z,60.77
2018-09-06T02:05:57.544Z,60.78
2018-09-06T02:08:26.112Z,61.33
2018-09-06T02:10:54.655Z,61.44
2018-09-06T02:13:23.595Z,61.31
2018-09-06T02:15:52.145Z,60.91
2018-09-06T02:18:20.700Z,60.74
2018-09-06T02:20:49.366Z,60.45
2018-09-06T02:23:17.907Z,60.90
2018-09-06T02:25:46.550Z,60.64
2018-09-06T02:28:15.303Z,60.61
2018-09-06T02:30:43.863Z,61.26
2018-09-06T02:33:12.415Z,61.29
2018-09-06T02:35:41.495Z,60.82
2018-09-06T02:38:10.044Z,60.06
2018-09-06T02:40:39.039Z,60.80
2018-09-06T02:43:10.359Z,60.19
2018-09-06T02:45:38.992Z,60.29
2018-09-06T02:48:07.563Z,60.72
2018-09-06T02:50:41.443Z,59.96
2018-09-06T02:53:10.377Z,60.34
2018-09-06T02:55:39.071Z,60.58
2018-09-06T02:58:07.791Z,60.78
2018-09-06T03:00:37.583Z,60.37
2018-09-06T03:03:06.388Z,60.63
2018-09-06T03:05:35.085Z,61.03
2018-09-06T03:08:03.719Z,60.89
2018-09-06T03:10:37.315Z,61.32
2018-09-06T03:13:05.960Z,61.28
2018-09-06T03:15:34.544Z,61.34
2018-09-06T03:18:03.583Z,61.13
2018-09-06T03:20:32.171Z,61.33
2018-09-06T03:23:01.047Z,61.73
2018-09-06T03:25:30.567Z,61.53
2018-09-06T03:27:59.115Z,62.01
2018-09-06T03:30:27.717Z,62.08
2018-09-06T03:32:56.307Z,61.51
2018-09-06T03:35:24.925Z,61.49
2018-09-06T03:37:53.524Z,61.11
2018-09-06T03:40:22.724Z,61.49
2018-09-06T03:42:51.283Z,61.59
2018-09-06T03:45:19.829Z,61.76
2018-09-06T03:47:48.446Z,61.72
2018-09-06T03:50:17.016Z,61.65
2018-09-06T03:52:45.562Z,61.75
2018-09-06T03:55:14.999Z,61.86
2018-09-06T03:57:44.016Z,62.00
2018-09-06T04:00:12.655Z,62.02
2018-09-06T04:02:41.333Z,61.69
2018-09-06T04:05:09.899Z,62.37
2018-09-06T04:07:38.527Z,63.07
2018-09-06T04:10:07.304Z,62.70
2018-09-06T04:12:35.859Z,62.53
2018-09-06T04:15:04.720Z,62.71
2018-09-06T04:17:33.376Z,62.46
2018-09-06T04:20:01.927Z,62.67
2018-09-06T04:22:30.509Z,62.88
2018-09-06T04:24:59.111Z,62.42
2018-09-06T04:27:27.663Z,61.81
2018-09-06T04:29:56.347Z,62.00
2018-09-06T04:32:25.204Z,62.20
2018-09-06T04:34:53.873Z,62.04
2018-09-06T04:37:22.435Z,61.99
2018-09-06T04:39:51.376Z,61.91
2018-09-06T04:42:19.955Z,62.08
2018-09-06T04:44:48.503Z,62.00
2018-09-06T04:47:17.095Z,61.99
2018-09-06T04:49:45.636Z,62.13
2018-09-06T04:52:14.191Z,62.13
2018-09-06T04:54:42.856Z,61.48
2018-09-06T04:57:11.404Z,61.62
2018-09-06T04:59:39.980Z,61.79
2018-09-06T05:02:08.676Z,61.38
2018-09-06T05:04:37.235Z,61.45
2018-09-06T05:07:05.875Z,61.70
2018-09-06T05:09:34.531Z,61.54
2018-09-06T05:12:03.095Z,61.59
2018-09-06T05:14:31.692Z,61.36
2018-09-06T05:17:00.471Z,61.44
2018-09-06T05:19:29.035Z,61.16
2018-09-06T05:21:57.680Z,61.64
2018-09-06T05:24:26.476Z,61.35
2018-09-06T05:26:55.059Z,61.47
2018-09-06T05:29:24.052Z,61.86
2018-09-06T05:31:52.715Z,61.87
2018-09-06T05:34:21.258Z,61.66
2018-09-06T05:36:49.803Z,61.46
2018-09-06T05:39:18.387Z,61.81
2018-09-06T05:41:46.966Z,61.69
2018-09-06T05:44:15.519Z,62.18
2018-09-06T05:46:44.237Z,61.66
2018-09-06T05:49:12.796Z,62.22
2018-09-06T05:51:41.347Z,62.10
2018-09-06T05:54:10.003Z,62.21
2018-09-06T05:56:38.560Z,62.17
2018-09-06T05:59:07.135Z,62.23
2018-09-06T06:01:36.104Z,62.22
2018-09-06T06:04:04.663Z,61.83
2018-09-06T06:06:33.203Z,61.77
2018-09-06T06:09:01.799Z,62.25
2018-09-06T06:11:30.415Z,61.89
2018-09-06T06:13:58.959Z,62.58
2018-09-06T06:16:27.547Z,62.07
2018-09-06T06:18:56.107Z,61.92
2018-09-06T06:21:24.675Z,61.44
2018-09-06T06:23:53.271Z,60.90
2018-09-06T06:26:21.823Z,60.63
2018-09-06T06:28:50.371Z,59.75
2018-09-06T06:31:18.955Z,58.44
2018-09-06T06:33:47.535Z,57.67
2018-09-06T06:36:16.086Z,58.02
2018-09-06T06:38:44.771Z,57.14
2018-09-06T06:41:13.341Z,56.08
2018-09-06T06:43:41.917Z,55.86
2018-09-06T06:46:10.787Z,54.76
2018-09-06T06:48:39.293Z,54.12
2018-09-06T06:51:07.848Z,53.44
2018-09-06T06:53:36.530Z,52.86
2018-09-06T06:56:05.252Z,52.91
2018-09-06T06:58:33.884Z,52.13
2018-09-06T07:01:02.709Z,50.88
2018-09-06T07:03:31.209Z,51.62
2018-09-06T07:05:59.748Z,52.11
2018-09-06T07:08:28.666Z,52.98
2018-09-06T07:10:57.215Z,53.78
2018-09-06T07:13:25.764Z,54.39
2018-09-06T07:15:54.720Z,55.09
2018-09-06T07:18:23.387Z,54.73
2018-09-06T07:20:51.939Z,54.88
2018-09-06T07:23:20.783Z,54.14
2018-09-06T07:25:49.354Z,52.13
2018-09-06T07:28:17.919Z,50.05
2018-09-06T07:30:46.612Z,48.85
2018-09-06T07:33:15.176Z,48.09
2018-09-06T07:35:43.727Z,46.96
2018-09-06T07:38:12.403Z,46.27
2018-09-06T07:40:40.952Z,45.71
2018-09-06T07:43:09.507Z,44.46
2018-09-06T07:45:38.180Z,43.79
2018-09-06T07:48:06.964Z,42.92
2018-09-06T07:50:35.523Z,41.73
2018-09-06T07:53:04.223Z,40.46
2018-09-06T07:55:32.772Z,40.75
2018-09-06T07:58:01.344Z,39.70
2018-09-06T08:00:29.973Z,38.52
2018-09-06T08:02:58.523Z,38.00
2018-09-06T08:05:27.072Z,37.90
2018-09-06T08:07:55.704Z,37.46
2018-09-06T08:10:24.315Z,36.67
2018-09-06T08:12:52.883Z,35.91
2018-09-06T08:15:21.875Z,36.41
2018-09-06T08:17:50.407Z,35.56
2018-09-06T08:20:19.032Z,34.97
2018-09-06T08:22:47.780Z,34.64
2018-09-06T08:25:16.348Z,34.93
2018-09-06T08:27:44.907Z,34.12
2018-09-06T08:30:13.584Z,34.10
2018-09-06T08:32:42.171Z,33.63
2018-09-06T08:35:10.724Z,33.25
2018-09-06T08:37:39.311Z,32.55
2018-09-06T08:40:07.991Z,32.48
2018-09-06T08:42:36.548Z,33.35
2018-09-06T08:45:05.205Z,32.52
2018-09-06T08:47:33.788Z,32.27
2018-09-06T08:50:02.347Z,32.61
2018-09-06T08:52:31.073Z,33.06
2018-09-06T08:54:59.567Z,31.93
2018-09-06T08:57:28.127Z,32.15
2018-09-06T08:59:56.807Z,30.82
2018-09-06T09:02:25.453Z,30.46
2018-09-06T09:04:53.971Z,30.93
2018-09-06T09:07:23.206Z,30.29
2018-09-06T09:09:51.759Z,29.69
2018-09-06T09:12:20.425Z,29.45
2018-09-06T09:14:49.042Z,30.06
2018-09-06T09:17:17.716Z,29.14
2018-09-06T09:19:46.297Z,28.01
2018-09-06T09:22:15.127Z,28.05
2018-09-06T09:24:43.463Z,28.10
2018-09-06T09:27:12.051Z,27.30
2018-09-06T09:29:41.192Z,26.87
2018-09-06T09:32:09.760Z,26.97
2018-09-06T09:34:38.339Z,27.01
2018-09-06T09:37:07.036Z,27.20
2018-09-06T09:39:35.640Z,26.97
2018-09-06T09:42:04.210Z,26.74
2018-09-06T09:44:32.839Z,27.01
2018-09-06T09:49:29.102Z,25.49
2018-09-06T09:51:57.788Z,27.68
2018-09-06T09:54:26.335Z,27.57
2018-09-06T09:56:54.937Z,27.33
2018-09-06T09:59:23.547Z,29.56
2018-09-06T10:01:57.416Z,29.19
2018-09-06T10:04:31.690Z,30.04
2018-09-06T10:07:05.532Z,30.13
2018-09-06T10:09:34.244Z,30.17
2018-09-06T10:12:02.858Z,29.70
2018-09-06T10:14:31.404Z,28.31
2018-09-06T10:17:00.008Z,28.84
2018-09-06T10:19:28.566Z,29.37
2018-09-06T10:21:57.175Z,31.21
2018-09-06T10:24:25.855Z,32.78
2018-09-06T10:26:54.527Z,34.49
2018-09-06T10:29:23.113Z,36.66
2018-09-06T10:31:51.818Z,43.42
2018-09-06T10:34:20.411Z,50.34
2018-09-06T10:36:48.980Z,57.49
2018-09-06T10:39:17.767Z,61.62
2018-09-06T10:41:46.341Z,64.81
2018-09-06T10:44:14.947Z,59.46
2018-09-06T10:46:43.649Z,60.25
2018-09-06T10:49:12.196Z,61.98
2018-09-06T10:51:40.760Z,64.44
2018-09-06T10:54:09.479Z,63.47
2018-09-06T10:56:38.073Z,67.62
2018-09-06T10:59:06.732Z,66.75
2018-09-06T11:01:35.471Z,66.79
2018-09-06T11:04:04.039Z,63.57
2018-09-06T11:06:32.599Z,63.75
2018-09-06T11:09:01.284Z,64.59
2018-09-06T11:11:29.871Z,67.16
2018-09-06T11:13:58.424Z,69.04
2018-09-06T11:16:27.180Z,70.44
2018-09-06T11:18:55.735Z,60.16
2018-09-06T11:21:24.380Z,63.21
2018-09-06T11:23:52.991Z,67.37
2018-09-06T11:26:21.544Z,68.98
2018-09-06T11:28:50.102Z,70.78
2018-09-06T11:31:18.761Z,70.36
2018-09-06T11:33:47.350Z,70.39
2018-09-06T11:36:15.935Z,72.56
2018-09-06T11:38:44.511Z,68.08
2018-09-06T11:41:13.072Z,68.84
2018-09-06T11:43:41.640Z,69.54
2018-09-06T11:46:10.480Z,67.50
2018-09-06T11:48:39.035Z,67.39
2018-09-06T11:51:08.427Z,67.19
2018-09-06T11:53:37.131Z,67.07
2018-09-06T11:56:06.054Z,67.92
2018-09-06T11:58:34.615Z,67.77
2018-09-06T12:01:03.415Z,68.35
2018-09-06T12:03:32.111Z,68.36
2018-09-06T12:06:00.709Z,68.90
2018-09-06T12:08:29.316Z,66.88
2018-09-06T12:10:57.899Z,64.70
2018-09-06T12:13:26.456Z,61.48
2018-09-06T12:15:55.127Z,60.26
2018-09-06T12:18:23.802Z,59.55
2018-09-06T12:20:52.399Z,58.29
2018-09-06T12:23:21.024Z,57.58
2018-09-06T12:25:49.669Z,56.24
2018-09-06T12:28:18.257Z,56.47
2018-09-06T12:30:46.939Z,56.50
2018-09-06T12:33:15.550Z,57.60
2018-09-06T12:35:44.181Z,55.78
2018-09-06T12:38:13.112Z,54.32
2018-09-06T12:40:41.683Z,53.79
2018-09-06T12:43:10.256Z,54.83
2018-09-06T12:45:38.915Z,54.69
2018-09-06T12:48:07.512Z,54.20
2018-09-06T12:50:36.175Z,54.95
2018-09-06T12:53:04.847Z,54.83
2018-09-06T12:55:33.432Z,51.49
2018-09-06T12:58:02.011Z,49.47
2018-09-06T13:00:30.645Z,50.46
2018-09-06T13:02:59.204Z,49.56
2018-09-06T13:05:27.768Z,48.11
2018-09-06T13:07:56.394Z,47.35
2018-09-06T13:10:24.987Z,46.87
2018-09-06T13:12:53.568Z,46.82
2018-09-06T13:15:22.171Z,47.00
2018-09-06T13:17:50.727Z,45.82
2018-09-06T13:20:20.248Z,45.76
2018-09-06T13:22:48.871Z,46.27
2018-09-06T13:25:17.411Z,46.61
2018-09-06T13:27:45.995Z,45.33
2018-09-06T13:30:15.008Z,48.38
2018-09-06T13:32:43.568Z,48.88
2018-09-06T13:35:12.128Z,49.74
2018-09-06T13:37:40.731Z,46.30
2018-09-06T13:40:09.340Z,45.69
2018-09-06T13:42:37.892Z,45.14
2018-09-06T13:45:06.659Z,44.19
2018-09-06T13:47:35.216Z,43.51
2018-09-06T13:50:03.798Z,44.80
2018-09-06T13:52:32.768Z,42.91
2018-09-06T13:55:01.312Z,42.52
2018-09-06T13:57:29.867Z,41.19
2018-09-06T13:59:58.488Z,42.66
2018-09-06T14:02:27.047Z,41.92
2018-09-06T14:04:55.738Z,41.13
2018-09-06T14:07:24.314Z,39.27
2018-09-06T14:09:52.935Z,40.47
2018-09-06T14:12:21.497Z,39.37
2018-09-06T14:14:50.191Z,38.95
2018-09-06T14:17:18.738Z,39.99
2018-09-06T14:19:47.296Z,39.34
2018-09-06T14:22:15.960Z,41.70
2018-09-06T14:24:44.515Z,40.80
2018-09-06T14:27:13.108Z,40.10
2018-09-06T14:29:42.268Z,38.16
2018-09-06T14:32:10.887Z,38.94
2018-09-06T14:34:39.385Z,39.00
2018-09-06T14:37:08.323Z,39.28
2018-09-06T14:39:36.916Z,39.16
2018-09-06T14:42:05.588Z,38.67
2018-09-06T14:44:34.323Z,40.41
2018-09-06T14:47:02.891Z,40.02
2018-09-06T14:49:31.507Z,38.87
2018-09-06T14:52:00.168Z,38.45
2018-09-06T14:54:28.724Z,38.72
2018-09-06T14:56:57.271Z,39.64
2018-09-06T14:59:26.399Z,39.00
2018-09-06T15:01:55.036Z,38.20
2018-09-06T15:04:23.631Z,38.63
2018-09-06T15:06:52.204Z,38.67
2018-09-06T15:09:20.756Z,39.27
2018-09-06T15:11:49.291Z,40.33
2018-09-06T15:14:18.756Z,46.08
2018-09-06T15:16:47.833Z,45.65
2018-09-06T15:19:16.419Z,47.30
2018-09-06T15:21:45.075Z,48.63
2018-09-06T15:24:13.988Z,50.28
2018-09-06T15:26:42.576Z,51.56
2018-09-06T15:29:11.483Z,54.06
2018-09-06T15:31:40.073Z,55.87
2018-09-06T15:34:08.647Z,55.57
2018-09-06T15:36:37.830Z,58.11
2018-09-06T15:39:08.983Z,60.39
2018-09-06T15:41:37.632Z,64.37
2018-09-06T15:44:06.875Z,65.74
2018-09-06T15:46:35.460Z,64.75
2018-09-06T15:49:04.123Z,67.03
2018-09-06T15:51:32.671Z,68.36
2018-09-06T15:54:01.228Z,71.06
2018-09-06T15:56:29.811Z,71.27
2018-09-06T15:58:58.358Z,71.61
2018-09-06T16:01:26.970Z,73.46
2018-09-06T16:03:55.639Z,73.57
2018-09-06T16:06:24.139Z,73.83
2018-09-06T16:08:52.691Z,74.13
2018-09-06T16:11:21.659Z,73.81
2018-09-06T16:13:50.285Z,75.07
2018-09-06T16:16:18.955Z,75.41
2018-09-06T16:18:47.799Z,75.42
2018-09-06T16:21:16.371Z,75.68
2018-09-06T16:23:44.935Z,75.59
2018-09-06T16:26:13.596Z,76.09
2018-09-06T16:28:42.140Z,76.17
2018-09-06T16:31:10.700Z,76.19
2018-09-06T16:33:39.403Z,76.16
2018-09-06T16:36:07.975Z,75.40
2018-09-06T16:38:36.560Z,75.24
2018-09-06T16:41:05.288Z,75.62
2018-09-06T16:43:33.848Z,75.62
2018-09-06T16:46:02.428Z,75.74
2018-09-06T16:48:31.111Z,76.15
2018-09-06T16:50:59.683Z,75.96
2018-09-06T16:53:28.256Z,76.45
2018-09-06T16:55:57.338Z,76.23
2018-09-06T16:58:25.891Z,76.19
2018-09-06T17:00:54.498Z,76.47
2018-09-06T17:03:23.367Z,76.18
2018-09-06T17:05:51.928Z,76.11
2018-09-06T17:08:20.487Z,76.24
2018-09-06T17:10:49.316Z,76.35
2018-09-06T17:13:17.920Z,75.35
2018-09-06T17:15:52.053Z,75.80
2018-09-06T17:18:20.624Z,76.06
2018-09-06T17:20:49.192Z,76.19
2018-09-06T17:23:17.875Z,76.58
2018-09-06T17:25:46.439Z,76.39
2018-09-06T17:28:15.007Z,76.33
2018-09-06T17:30:43.612Z,76.58
2018-09-06T17:33:12.245Z,76.66
2018-09-06T17:35:40.752Z,76.54
2018-09-06T17:38:09.588Z,76.84
2018-09-06T17:40:38.143Z,76.64
2018-09-06T17:43:06.724Z,77.05
2018-09-06T17:45:35.443Z,76.75
2018-09-06T17:48:04.006Z,77.15
2018-09-06T17:50:32.999Z,77.08
2018-09-06T17:53:01.738Z,77.13
2018-09-06T17:55:30.392Z,76.97
2018-09-06T17:57:58.959Z,77.49
2018-09-06T18:00:27.676Z,77.12
2018-09-06T18:02:56.296Z,77.11
2018-09-06T18:05:24.859Z,77.27
2018-09-06T18:07:53.747Z,77.47
2018-09-06T18:10:22.300Z,77.52
2018-09-06T18:12:50.884Z,77.44
2018-09-06T18:15:19.472Z,77.66
2018-09-06T18:17:48.206Z,77.58
2018-09-06T18:20:16.717Z,77.14
2018-09-06T18:22:45.423Z,77.25
2018-09-06T18:25:14.088Z,77.58
2018-09-06T18:27:42.755Z,77.31
2018-09-06T18:30:11.680Z,77.31
2018-09-06T18:32:40.259Z,77.35
2018-09-06T18:35:08.816Z,77.52
2018-09-06T18:37:37.416Z,77.18
2018-09-06T18:40:05.992Z,77.67
2018-09-06T18:42:34.571Z,77.13
2018-09-06T18:45:03.180Z,77.08
2018-09-06T18:47:31.821Z,77.14
2018-09-06T18:50:00.396Z,77.42
2018-09-06T18:52:29.148Z,77.45
2018-09-06T18:54:57.711Z,77.55
2018-09-06T18:57:26.284Z,77.64
2018-09-06T18:59:55.143Z,77.72
2018-09-06T19:02:23.733Z,77.46
2018-09-06T19:04:52.287Z,77.27
2018-09-06T19:07:20.876Z,77.25
2018-09-06T19:09:49.448Z,77.43
2018-09-06T19:12:18.003Z,77.14
2018-09-06T19:14:46.696Z,77.25
2018-09-06T19:17:15.247Z,77.22
2018-09-06T19:19:43.791Z,77.56
2018-09-06T19:22:12.409Z,77.12
2018-09-06T19:24:41.160Z,77.56
2018-09-06T19:27:09.719Z,77.52
2018-09-06T19:29:38.387Z,77.02
2018-09-06T19:32:07.072Z,77.61
2018-09-06T19:34:35.603Z,77.13
2018-09-06T19:37:04.200Z,77.33
2018-09-06T19:39:32.805Z,77.65
2018-09-06T19:42:01.360Z,77.35
2018-09-06T19:44:30.384Z,77.09
2018-09-06T19:46:58.948Z,77.29
2018-09-06T19:49:27.499Z,77.09
2018-09-06T19:51:56.250Z,77.03
2018-09-06T19:54:24.942Z,76.76
2018-09-06T19:56:54.003Z,77.12
2018-09-06T19:59:22.847Z,77.16
2018-09-06T20:01:51.465Z,76.82
2018-09-06T20:04:20.139Z,76.96
2018-09-06T20:06:48.807Z,76.38
2018-09-06T20:09:17.381Z,76.44
2018-09-06T20:11:46.000Z,75.96
2018-09-06T20:14:15.016Z,76.68
2018-09-06T20:16:43.626Z,76.45
2018-09-06T20:19:12.160Z,76.27
2018-09-06T20:21:40.976Z,76.34
2018-09-06T20:24:09.523Z,76.10
2018-09-06T20:26:38.082Z,76.42
2018-09-06T20:29:06.745Z,76.09
2018-09-06T20:31:35.287Z,75.89
2018-09-06T20:34:03.843Z,76.25
2018-09-06T20:36:32.591Z,75.90
2018-09-06T20:39:01.169Z,76.08
2018-09-06T20:41:29.763Z,76.23
2018-09-06T20:43:58.355Z,76.00
2018-09-06T20:46:26.899Z,75.94
2018-09-06T20:48:55.452Z,76.40
2018-09-06T20:51:24.900Z,75.86
2018-09-06T20:53:54.011Z,75.37
2018-09-06T20:56:22.580Z,75.46
2018-09-06T20:58:51.150Z,75.90
2018-09-06T21:01:19.700Z,75.83
2018-09-06T21:03:48.491Z,75.69
2018-09-06T21:06:17.334Z,75.56
2018-09-06T21:08:45.907Z,75.48
2018-09-06T21:11:14.512Z,75.83
2018-09-06T21:13:43.095Z,75.08
2018-09-06T21:16:11.695Z,75.17
2018-09-06T21:18:40.260Z,74.89
2018-09-06T21:21:08.888Z,75.22
2018-09-06T21:23:37.460Z,75.12
2018-09-06T21:26:06.220Z,75.50
2018-09-06T21:28:34.814Z,75.54
2018-09-06T21:31:03.387Z,75.86
2018-09-06T21:33:32.076Z,75.56
2018-09-06T21:36:00.768Z,75.54
2018-09-06T21:38:29.347Z,75.71
2018-09-06T21:40:57.908Z,75.70
2018-09-06T21:43:26.659Z,75.44
2018-09-06T21:45:55.272Z,75.49
2018-09-06T21:48:23.819Z,75.74
2018-09-06T21:50:52.483Z,75.65
2018-09-06T21:53:21.019Z,75.65
2018-09-06T21:55:49.650Z,75.63
2018-09-06T21:58:18.620Z,75.96
2018-09-06T22:00:47.252Z,75.79
2018-09-06T22:03:21.532Z,75.76
2018-09-06T22:05:50.071Z,75.27
2018-09-06T22:08:18.618Z,75.56
2018-09-06T22:10:47.589Z,75.22
2018-09-06T22:13:16.151Z,75.50
2018-09-06T22:15:44.703Z,74.66
2018-09-06T22:18:13.539Z,74.98
2018-09-06T22:20:42.108Z,74.88
2018-09-06T22:23:10.663Z,75.11
2018-09-06T22:25:39.626Z,75.60
2018-09-06T22:28:08.163Z,74.95
2018-09-06T22:30:36.728Z,75.21
2018-09-06T22:33:05.400Z,74.83
2018-09-06T22:35:33.951Z,75.12
2018-09-06T22:38:02.598Z,74.71
2018-09-06T22:40:31.208Z,75.51
2018-09-06T22:42:59.775Z,74.90
2018-09-06T22:45:28.319Z,75.69
2018-09-06T22:47:57.284Z,74.90
2018-09-06T22:50:25.939Z,75.29
2018-09-06T22:52:54.492Z,75.21
2018-09-06T22:55:23.085Z,74.54
2018-09-06T22:57:51.852Z,73.82
2018-09-06T23:00:21.114Z,73.26
2018-09-06T23:02:55.723Z,73.57
2018-09-06T23:05:24.739Z,73.00
2018-09-06T23:07:53.296Z,73.23
2018-09-06T23:10:21.894Z,73.15
2018-09-06T23:12:51.564Z,73.67
2018-09-06T23:15:20.406Z,73.38
2018-09-06T23:17:49.080Z,73.35
2018-09-06T23:20:17.662Z,73.29
2018-09-06T23:22:46.224Z,73.31
2018-09-06T23:25:14.827Z,73.52
2018-09-06T23:27:43.447Z,72.93
2018-09-06T23:30:12.034Z,73.14
2018-09-06T23:32:40.664Z,73.35
2018-09-06T23:35:09.216Z,73.50
2018-09-06T23:37:37.843Z,73.37
2018-09-06T23:40:06.447Z,73.31
2018-09-06T23:42:34.991Z,73.63
2018-09-06T23:45:03.560Z,73.37
2018-09-06T23:47:32.343Z,73.50
2018-09-06T23:50:00.979Z,74.01
2018-09-06T23:52:30.531Z,73.36
2018-09-06T23:54:59.580Z,73.25
2018-09-06T23:57:28.197Z,73.31
2018-09-06T23:59:56.751Z,73.36
